createdAt,value
2017-05-17T00:01:05.204Z,19.10
2017-05-17T00:03:34.270Z,19.10
2017-05-17T00:06:03.362Z,19.10
2017-05-17T00:08:33.200Z,19.10
2017-05-17T00:11:02.280Z,19.10
2017-05-17T00:13:32.107Z,19.00
2017-05-17T00:16:01.183Z,19.10
2017-05-17T00:18:31.323Z,19.10
2017-05-17T00:21:00.427Z,19.10
2017-05-17T00:23:29.524Z,19.10
2017-05-17T00:25:58.626Z,19.10
2017-05-17T00:28:27.715Z,19.10
2017-05-17T00:30:56.800Z,19.00
2017-05-17T00:33:25.867Z,19.10
2017-05-17T00:36:07.686Z,19.00
2017-05-17T00:38:49.179Z,19.00
2017-05-17T00:41:30.364Z,19.00
2017-05-17T00:44:11.236Z,19.00
2017-05-17T00:46:52.230Z,19.00
2017-05-17T00:49:33.170Z,19.00
2017-05-17T00:52:08.568Z,18.90
2017-05-17T00:54:37.639Z,18.90
2017-05-17T00:57:06.694Z,18.80
2017-05-17T00:59:36.515Z,18.80
2017-05-17T01:02:05.578Z,18.80
2017-05-17T01:04:35.415Z,18.80
2017-05-17T01:07:04.486Z,18.90
2017-05-17T01:09:34.434Z,18.80
2017-05-17T01:12:03.541Z,18.90
2017-05-17T01:14:32.635Z,18.90
2017-05-17T01:17:01.674Z,18.90
2017-05-17T01:19:30.763Z,18.90
2017-05-17T01:21:59.863Z,18.80
2017-05-17T01:24:29.675Z,18.80
2017-05-17T01:26:58.807Z,18.80
2017-05-17T01:29:27.878Z,18.80
2017-05-17T01:31:57.731Z,18.80
2017-05-17T01:34:26.779Z,18.90
2017-05-17T01:36:56.923Z,18.90
2017-05-17T01:39:25.991Z,18.90
2017-05-17T01:41:55.806Z,18.90
2017-05-17T01:44:25.640Z,18.80
2017-05-17T01:46:54.731Z,18.90
2017-05-17T01:49:23.826Z,18.90
2017-05-17T01:51:52.904Z,18.80
2017-05-17T01:54:22.943Z,18.70
2017-05-17T01:56:52.066Z,18.80
2017-05-17T01:59:21.836Z,18.70
2017-05-17T02:01:50.943Z,18.60
2017-05-17T02:04:20.021Z,18.60
2017-05-17T02:06:49.126Z,18.60
2017-05-17T02:09:18.218Z,18.60
2017-05-17T02:11:47.623Z,18.50
2017-05-17T02:14:16.815Z,18.50
2017-05-17T02:16:46.637Z,18.40
2017-05-17T02:19:16.581Z,18.40
2017-05-17T02:21:45.871Z,18.40
2017-05-17T02:24:15.156Z,18.40
2017-05-17T02:26:44.219Z,18.40
2017-05-17T02:29:14.051Z,18.40
2017-05-17T02:31:43.151Z,18.50
2017-05-17T02:34:12.227Z,18.50
2017-05-17T02:36:41.324Z,18.50
2017-05-17T02:39:10.543Z,18.50
2017-05-17T02:41:39.638Z,18.50
2017-05-17T02:44:08.697Z,18.50
2017-05-17T02:46:37.883Z,18.50
2017-05-17T02:49:06.946Z,18.50
2017-05-17T02:51:36.000Z,18.50
2017-05-17T02:54:05.100Z,18.50
2017-05-17T02:56:34.175Z,18.40
2017-05-17T02:59:04.227Z,18.40
2017-05-17T03:01:33.306Z,18.50
2017-05-17T03:04:02.383Z,18.50
2017-05-17T03:06:31.502Z,18.40
2017-05-17T03:09:00.580Z,18.40
2017-05-17T03:11:29.681Z,18.40
2017-05-17T03:13:58.887Z,18.30
2017-05-17T03:16:28.076Z,18.30
2017-05-17T03:18:57.881Z,18.20
2017-05-17T03:21:27.702Z,18.20
2017-05-17T03:23:56.791Z,18.30
2017-05-17T03:26:26.588Z,18.20
2017-05-17T03:28:55.663Z,18.20
2017-05-17T03:31:24.719Z,18.20
2017-05-17T03:33:53.806Z,18.20
2017-05-17T03:36:22.871Z,18.20
2017-05-17T03:38:52.092Z,18.10
2017-05-17T03:41:21.172Z,18.10
2017-05-17T03:43:50.246Z,18.10
2017-05-17T03:46:19.327Z,18.00
2017-05-17T03:48:48.394Z,18.00
2017-05-17T03:51:17.479Z,18.00
2017-05-17T03:53:46.539Z,18.10
2017-05-17T03:56:16.566Z,18.00
2017-05-17T03:58:45.634Z,18.00
2017-05-17T04:01:15.454Z,18.00
2017-05-17T04:03:45.291Z,18.00
2017-05-17T04:06:14.354Z,18.00
2017-05-17T04:08:44.186Z,17.90
2017-05-17T04:11:13.270Z,18.00
2017-05-17T04:13:43.214Z,17.90
2017-05-17T04:16:12.287Z,18.00
2017-05-17T04:18:41.359Z,18.00
2017-05-17T04:21:10.458Z,18.00
2017-05-17T04:23:40.279Z,18.00
2017-05-17T04:26:10.319Z,18.00
2017-05-17T04:28:39.397Z,18.00
2017-05-17T04:31:09.195Z,18.00
2017-05-17T04:33:38.284Z,18.10
2017-05-17T04:36:07.395Z,18.20
2017-05-17T04:38:36.496Z,18.20
2017-05-17T04:41:06.287Z,18.20
2017-05-17T04:43:35.725Z,18.30
2017-05-17T04:46:04.795Z,18.30
2017-05-17T04:48:33.914Z,18.40
2017-05-17T04:51:02.998Z,18.40
2017-05-17T04:53:32.206Z,18.50
2017-05-17T04:56:01.309Z,18.50
2017-05-17T04:58:30.451Z,18.50
2017-05-17T05:00:59.891Z,18.50
2017-05-17T05:03:28.958Z,18.50
2017-05-17T05:05:58.023Z,18.60
2017-05-17T05:08:27.121Z,18.70
2017-05-17T05:10:56.213Z,18.80
2017-05-17T05:13:25.307Z,18.80
2017-05-17T05:15:54.385Z,18.90
2017-05-17T05:18:23.651Z,19.00
2017-05-17T05:20:52.789Z,19.10
2017-05-17T05:23:21.858Z,19.20
2017-05-17T05:25:50.964Z,19.30
2017-05-17T05:28:20.440Z,19.50
2017-05-17T05:30:49.696Z,19.60
2017-05-17T05:33:18.776Z,19.70
2017-05-17T05:35:47.866Z,19.90
2017-05-17T05:38:16.975Z,20.00
2017-05-17T05:40:46.045Z,20.10
2017-05-17T05:43:15.169Z,20.30
2017-05-17T05:45:44.236Z,20.30
2017-05-17T05:48:13.343Z,20.40
2017-05-17T05:50:42.411Z,20.50
2017-05-17T05:53:11.515Z,20.60
2017-05-17T05:55:40.587Z,20.70
2017-05-17T05:58:10.001Z,20.80
2017-05-17T06:00:39.787Z,20.80
2017-05-17T06:03:09.627Z,20.90
2017-05-17T06:05:38.739Z,21.10
2017-05-17T06:08:07.844Z,21.10
2017-05-17T06:10:37.024Z,21.20
2017-05-17T06:13:06.107Z,21.30
2017-05-17T06:15:35.210Z,21.50
2017-05-17T06:18:04.312Z,21.70
2017-05-17T06:20:33.399Z,21.80
2017-05-17T06:23:02.485Z,21.90
2017-05-17T06:25:31.570Z,21.90
2017-05-17T06:28:00.667Z,21.90
2017-05-17T06:30:29.735Z,21.90
2017-05-17T06:32:59.577Z,21.90
2017-05-17T06:35:28.642Z,22.10
2017-05-17T06:37:57.887Z,22.30
2017-05-17T06:40:26.964Z,22.40
2017-05-17T06:42:56.034Z,22.60
2017-05-17T06:45:25.148Z,22.70
2017-05-17T06:47:54.295Z,22.70
2017-05-17T06:50:23.382Z,22.80
2017-05-17T06:52:52.454Z,22.80
2017-05-17T06:55:22.039Z,22.90
2017-05-17T06:57:51.182Z,22.90
2017-05-17T07:00:20.275Z,23.10
2017-05-17T07:02:49.359Z,23.30
2017-05-17T07:05:18.426Z,23.60
2017-05-17T07:07:47.544Z,23.70
2017-05-17T07:10:16.607Z,23.90
2017-05-17T07:12:45.859Z,23.90
2017-05-17T07:15:14.930Z,24.00
2017-05-17T07:17:43.995Z,24.10
2017-05-17T07:20:13.123Z,24.30
2017-05-17T07:22:42.207Z,24.30
2017-05-17T07:25:11.423Z,24.30
2017-05-17T07:27:41.262Z,24.20
2017-05-17T07:30:10.420Z,24.30
2017-05-17T07:32:39.730Z,24.30
2017-05-17T07:35:08.823Z,24.20
2017-05-17T07:37:37.927Z,24.20
2017-05-17T07:40:07.032Z,24.10
2017-05-17T07:42:36.236Z,23.90
2017-05-17T07:45:05.311Z,23.80
2017-05-17T07:47:34.379Z,23.80
2017-05-17T07:50:03.479Z,23.80
2017-05-17T07:52:32.585Z,23.90
2017-05-17T07:55:01.694Z,23.90
2017-05-17T07:57:30.971Z,23.90
2017-05-17T08:00:00.175Z,24.10
2017-05-17T08:02:29.295Z,24.20
2017-05-17T08:04:58.363Z,24.20
2017-05-17T08:07:27.454Z,24.30
2017-05-17T08:09:56.639Z,24.40
2017-05-17T08:12:25.783Z,24.50
2017-05-17T08:14:54.911Z,24.60
2017-05-17T08:17:24.231Z,24.70
2017-05-17T08:19:53.309Z,24.80
2017-05-17T08:22:22.407Z,24.80
2017-05-17T08:24:51.552Z,25.00
2017-05-17T08:27:20.636Z,25.00
2017-05-17T08:29:49.702Z,25.00
2017-05-17T08:32:18.767Z,25.00
2017-05-17T08:34:48.715Z,25.00
2017-05-17T08:37:17.798Z,25.10
2017-05-17T08:39:46.859Z,25.20
2017-05-17T08:42:15.938Z,25.20
2017-05-17T08:44:44.272Z,25.20
2017-05-17T08:47:13.525Z,25.20
2017-05-17T08:49:43.380Z,25.20
2017-05-17T08:52:12.430Z,25.30
2017-05-17T08:54:41.521Z,25.30
2017-05-17T08:57:10.581Z,25.30
2017-05-17T08:59:39.683Z,25.30
2017-05-17T09:02:08.766Z,25.40
2017-05-17T09:04:38.047Z,25.50
2017-05-17T09:07:07.244Z,25.60
2017-05-17T09:09:36.308Z,25.70
2017-05-17T09:12:05.661Z,25.70
2017-05-17T09:14:34.763Z,25.80
2017-05-17T09:17:03.839Z,25.90
2017-05-17T09:19:32.924Z,26.00
2017-05-17T09:22:02.431Z,26.10
2017-05-17T09:24:31.564Z,26.20
2017-05-17T09:27:00.661Z,26.30
2017-05-17T09:29:29.768Z,26.50
2017-05-17T09:31:58.835Z,26.60
2017-05-17T09:34:27.931Z,26.70
2017-05-17T09:36:56.988Z,26.60
2017-05-17T09:39:26.063Z,26.50
2017-05-17T09:41:55.312Z,26.50
2017-05-17T09:44:24.381Z,26.50
2017-05-17T09:46:53.483Z,26.50
2017-05-17T09:49:22.561Z,26.60
2017-05-17T09:51:51.642Z,26.80
2017-05-17T09:54:20.712Z,27.00
2017-05-17T09:56:50.091Z,27.10
2017-05-17T09:59:19.156Z,27.20
2017-05-17T10:01:48.203Z,27.30
2017-05-17T10:04:18.048Z,27.20
2017-05-17T10:06:47.197Z,27.30
2017-05-17T10:09:16.336Z,27.40
2017-05-17T10:11:46.127Z,27.30
2017-05-17T10:14:15.183Z,27.50
2017-05-17T10:16:44.262Z,27.50
2017-05-17T10:19:13.321Z,27.60
2017-05-17T10:21:43.154Z,27.70
2017-05-17T10:24:12.216Z,27.90
2017-05-17T10:26:42.150Z,27.90
2017-05-17T10:29:12.071Z,28.00
2017-05-17T10:31:41.282Z,28.20
2017-05-17T10:34:10.396Z,28.20
2017-05-17T10:36:39.471Z,28.30
2017-05-17T10:39:08.769Z,28.40
2017-05-17T10:41:37.823Z,28.50
2017-05-17T10:44:07.022Z,28.50
2017-05-17T10:46:36.838Z,28.40
2017-05-17T10:49:05.889Z,28.40
2017-05-17T10:51:34.958Z,28.40
2017-05-17T10:54:04.060Z,28.50
2017-05-17T10:56:33.278Z,28.60
2017-05-17T10:59:02.346Z,28.80
2017-05-17T11:01:32.158Z,28.90
2017-05-17T11:04:01.232Z,29.10
2017-05-17T11:06:31.371Z,29.10
2017-05-17T11:09:00.441Z,29.20
2017-05-17T11:11:29.514Z,29.40
2017-05-17T11:13:58.614Z,29.50
2017-05-17T11:16:27.694Z,29.60
2017-05-17T11:18:56.767Z,29.60
2017-05-17T11:21:25.830Z,29.50
2017-05-17T11:23:54.923Z,29.40
2017-05-17T11:26:24.019Z,29.40
2017-05-17T11:28:53.329Z,29.40
2017-05-17T11:31:22.527Z,29.20
2017-05-17T11:33:51.624Z,29.20
2017-05-17T11:36:20.722Z,29.10
2017-05-17T11:38:49.783Z,29.10
2017-05-17T11:41:19.635Z,29.00
2017-05-17T11:43:48.714Z,29.10
2017-05-17T11:46:17.804Z,29.00
2017-05-17T11:48:46.875Z,28.90
2017-05-17T11:51:16.194Z,28.90
2017-05-17T11:53:45.998Z,28.80
2017-05-17T11:56:15.075Z,28.80
2017-05-17T11:58:45.212Z,28.80
2017-05-17T12:01:14.278Z,28.80
2017-05-17T12:03:43.520Z,28.80
2017-05-17T12:06:12.699Z,28.80
2017-05-17T12:08:41.762Z,28.90
2017-05-17T12:11:10.829Z,28.80
2017-05-17T12:13:41.985Z,28.80
2017-05-17T12:16:13.905Z,28.80
2017-05-17T12:18:43.130Z,28.70
2017-05-17T12:21:12.202Z,28.60
2017-05-17T12:23:41.311Z,28.60
2017-05-17T12:26:11.039Z,28.70
2017-05-17T12:28:40.116Z,28.80
2017-05-17T12:31:09.404Z,28.80
2017-05-17T12:33:38.506Z,28.80
2017-05-17T12:36:07.594Z,28.80
2017-05-17T12:38:36.746Z,28.80
2017-05-17T12:41:05.903Z,28.90
2017-05-17T12:43:35.222Z,28.90
2017-05-17T12:46:04.326Z,28.70
2017-05-17T12:48:34.163Z,28.60
2017-05-17T12:51:04.019Z,28.60
2017-05-17T12:53:33.117Z,28.60
2017-05-17T12:56:02.219Z,28.80
2017-05-17T12:58:31.285Z,28.80
2017-05-17T13:01:00.380Z,28.60
2017-05-17T13:03:29.597Z,28.50
2017-05-17T13:05:58.673Z,28.30
2017-05-17T13:08:27.778Z,28.30
2017-05-17T13:10:56.903Z,28.30
2017-05-17T13:13:25.972Z,28.30
2017-05-17T13:15:55.091Z,28.40
2017-05-17T13:18:24.206Z,28.40
2017-05-17T13:20:53.238Z,28.40
2017-05-17T13:23:22.350Z,28.40
2017-05-17T13:25:51.408Z,28.40
2017-05-17T13:28:20.626Z,28.40
2017-05-17T13:30:49.698Z,28.40
2017-05-17T13:33:19.532Z,28.30
2017-05-17T13:35:48.646Z,28.30
2017-05-17T13:38:17.705Z,28.40
2017-05-17T13:40:47.552Z,28.40
2017-05-17T13:43:16.639Z,28.30
2017-05-17T13:45:45.753Z,28.20
2017-05-17T13:48:14.828Z,28.10
2017-05-17T13:50:43.946Z,28.10
2017-05-17T13:53:13.017Z,28.10
2017-05-17T13:55:42.100Z,28.20
2017-05-17T13:58:11.214Z,28.00
2017-05-17T14:00:40.323Z,28.10
2017-05-17T14:03:09.455Z,28.10
2017-05-17T14:05:38.537Z,28.10
2017-05-17T14:08:07.643Z,28.10
2017-05-17T14:10:36.732Z,28.10
2017-05-17T14:13:05.874Z,28.20
2017-05-17T14:15:34.887Z,28.20
2017-05-17T14:18:04.286Z,28.20
2017-05-17T14:20:33.378Z,28.20
2017-05-17T14:23:02.540Z,28.20
2017-05-17T14:25:31.783Z,28.10
2017-05-17T14:28:00.924Z,28.10
2017-05-17T14:30:29.983Z,28.10
2017-05-17T14:32:59.139Z,28.00
2017-05-17T14:35:28.247Z,28.10
2017-05-17T14:37:57.342Z,28.00
2017-05-17T14:40:26.475Z,27.90
2017-05-17T14:42:55.533Z,27.90
2017-05-17T14:45:24.691Z,27.90
2017-05-17T14:47:54.491Z,27.90
2017-05-17T14:50:23.644Z,27.90
2017-05-17T14:52:52.708Z,27.90
2017-05-17T14:55:21.851Z,27.90
2017-05-17T14:57:50.911Z,28.00
2017-05-17T15:00:20.005Z,28.20
2017-05-17T15:02:49.116Z,28.30
2017-05-17T15:05:18.190Z,28.40
2017-05-17T15:07:47.297Z,28.40
2017-05-17T15:10:16.397Z,28.40
2017-05-17T15:12:45.527Z,28.60
2017-05-17T15:15:14.643Z,28.80
2017-05-17T15:17:44.490Z,29.30
2017-05-17T15:20:13.571Z,29.70
2017-05-17T15:22:42.695Z,30.10
2017-05-17T15:25:11.786Z,30.70
2017-05-17T15:27:40.910Z,31.30
2017-05-17T15:30:09.979Z,31.60
2017-05-17T15:32:39.102Z,32.00
2017-05-17T15:35:08.167Z,32.30
2017-05-17T15:37:37.279Z,32.50
2017-05-17T15:40:06.406Z,33.20
2017-05-17T15:42:35.537Z,33.40
2017-05-17T15:45:04.629Z,33.80
2017-05-17T15:47:33.739Z,33.80
2017-05-17T15:50:02.796Z,34.10
2017-05-17T15:52:32.095Z,34.30
2017-05-17T15:55:01.908Z,34.70
2017-05-17T15:57:31.039Z,35.10
2017-05-17T16:00:00.116Z,35.50
2017-05-17T16:02:29.267Z,35.60
2017-05-17T16:04:58.340Z,35.20
2017-05-17T16:07:27.495Z,35.20
2017-05-17T16:09:57.314Z,35.10
2017-05-17T16:12:26.415Z,34.80
2017-05-17T16:14:55.471Z,34.60
2017-05-17T16:17:25.343Z,34.30
2017-05-17T16:19:54.405Z,34.60
2017-05-17T16:22:23.523Z,34.80
2017-05-17T16:24:52.606Z,35.20
2017-05-17T16:27:21.727Z,35.60
2017-05-17T16:29:50.790Z,36.00
2017-05-17T16:32:19.889Z,35.40
2017-05-17T16:34:48.983Z,35.40
2017-05-17T16:37:18.154Z,35.60
2017-05-17T16:39:47.974Z,35.80
2017-05-17T16:42:17.099Z,36.10
2017-05-17T16:44:46.185Z,36.20
2017-05-17T16:47:15.290Z,35.80
2017-05-17T16:49:44.398Z,35.40
2017-05-17T16:52:13.522Z,35.30
2017-05-17T16:54:43.352Z,35.20
2017-05-17T16:57:13.203Z,35.20
2017-05-17T16:59:42.280Z,35.10
2017-05-17T17:02:11.427Z,34.80
2017-05-17T17:04:40.560Z,34.90
2017-05-17T17:07:09.715Z,34.90
2017-05-17T17:09:39.247Z,34.80
2017-05-17T17:12:09.160Z,34.40
2017-05-17T17:14:38.203Z,34.50
2017-05-17T17:17:07.322Z,34.30
2017-05-17T17:19:36.447Z,34.70
2017-05-17T17:22:05.523Z,34.70
2017-05-17T17:24:34.612Z,34.30
2017-05-17T17:27:03.684Z,34.20
2017-05-17T17:29:33.094Z,34.10
2017-05-17T17:32:02.181Z,33.80
2017-05-17T17:34:31.376Z,33.80
2017-05-17T17:37:00.479Z,33.40
2017-05-17T17:39:29.586Z,32.80
2017-05-17T17:41:58.739Z,31.90
2017-05-17T17:44:27.815Z,30.90
2017-05-17T17:46:57.006Z,30.00
2017-05-17T17:49:26.103Z,29.30
2017-05-17T17:51:55.602Z,28.70
2017-05-17T17:54:24.737Z,28.20
2017-05-17T17:56:53.849Z,27.70
2017-05-17T17:59:22.948Z,27.20
2017-05-17T18:01:52.041Z,26.90
2017-05-17T18:04:21.218Z,26.60
2017-05-17T18:06:50.284Z,26.40
2017-05-17T18:09:19.414Z,26.20
2017-05-17T18:11:48.485Z,25.90
2017-05-17T18:14:17.633Z,25.70
2017-05-17T18:16:46.741Z,25.50
2017-05-17T18:19:16.626Z,25.40
2017-05-17T18:21:46.482Z,25.30
2017-05-17T18:24:15.663Z,25.30
2017-05-17T18:26:44.799Z,25.20
2017-05-17T18:29:13.916Z,25.10
2017-05-17T18:31:43.074Z,25.00
2017-05-17T18:34:12.175Z,24.90
2017-05-17T18:36:41.322Z,24.80
2017-05-17T18:39:10.439Z,24.70
2017-05-17T18:41:39.564Z,24.60
2017-05-17T18:44:08.756Z,24.50
2017-05-17T18:46:37.892Z,24.50
2017-05-17T18:49:07.000Z,24.40
2017-05-17T18:51:36.070Z,24.40
2017-05-17T18:54:05.187Z,24.30
2017-05-17T18:56:34.259Z,24.20
2017-05-17T18:59:03.363Z,24.20
2017-05-17T19:01:32.513Z,24.10
2017-05-17T19:04:02.340Z,24.00
2017-05-17T19:06:31.446Z,24.00
2017-05-17T19:09:00.503Z,23.90
2017-05-17T19:11:30.356Z,23.70
2017-05-17T19:13:59.503Z,23.80
2017-05-17T19:16:28.657Z,23.70
2017-05-17T19:18:57.732Z,23.70
2017-05-17T19:21:26.857Z,23.60
2017-05-17T19:23:55.919Z,23.50
2017-05-17T19:26:25.003Z,23.50
2017-05-17T19:28:54.129Z,23.40
2017-05-17T19:31:23.175Z,23.40
2017-05-17T19:33:52.309Z,23.30
2017-05-17T19:36:21.368Z,23.20
2017-05-17T19:38:51.247Z,23.10
2017-05-17T19:41:20.336Z,23.10
2017-05-17T19:43:49.462Z,23.00
2017-05-17T19:46:18.592Z,23.00
2017-05-17T19:48:47.716Z,22.90
2017-05-17T19:51:16.791Z,22.90
2017-05-17T19:53:45.904Z,22.90
2017-05-17T19:56:14.966Z,22.80
2017-05-17T19:58:44.081Z,22.80
2017-05-17T20:01:13.170Z,22.70
2017-05-17T20:03:42.288Z,22.70
2017-05-17T20:06:11.339Z,22.70
2017-05-17T20:08:40.455Z,22.60
2017-05-17T20:11:09.531Z,22.60
2017-05-17T20:13:38.654Z,22.50
2017-05-17T20:16:07.712Z,22.40
2017-05-17T20:18:37.573Z,22.30
2017-05-17T20:21:06.695Z,22.30
2017-05-17T20:23:35.803Z,22.20
2017-05-17T20:26:04.930Z,22.20
2017-05-17T20:28:34.028Z,22.10
2017-05-17T20:31:03.134Z,22.10
2017-05-17T20:33:32.237Z,22.00
2017-05-17T20:36:01.396Z,22.00
2017-05-17T20:38:30.457Z,21.90
2017-05-17T20:40:59.552Z,21.90
2017-05-17T20:43:28.638Z,21.80
2017-05-17T20:45:57.752Z,21.80
2017-05-17T20:48:26.816Z,21.80
2017-05-17T20:50:55.940Z,21.70
2017-05-17T20:53:25.011Z,21.70
2017-05-17T20:55:54.143Z,21.60
2017-05-17T20:58:23.964Z,21.50
2017-05-17T21:00:53.261Z,21.50
2017-05-17T21:03:23.063Z,21.40
2017-05-17T21:05:52.910Z,21.40
2017-05-17T21:08:21.984Z,21.40
2017-05-17T21:10:51.103Z,21.40
2017-05-17T21:13:20.211Z,21.40
2017-05-17T21:15:49.298Z,21.30
2017-05-17T21:18:18.383Z,21.30
2017-05-17T21:20:47.526Z,21.30
2017-05-17T21:23:17.379Z,21.20
2017-05-17T21:25:46.491Z,21.30
2017-05-17T21:28:15.675Z,21.30
2017-05-17T21:30:44.760Z,21.20
2017-05-17T21:33:13.882Z,21.20
2017-05-17T21:35:42.952Z,21.20
2017-05-17T21:38:12.075Z,21.20
2017-05-17T21:40:41.190Z,21.20
2017-05-17T21:43:10.260Z,21.10
2017-05-17T21:45:39.404Z,21.10
2017-05-17T21:48:08.481Z,21.10
2017-05-17T21:50:37.603Z,21.10
2017-05-17T21:53:06.708Z,21.10
2017-05-17T21:55:35.831Z,21.00
2017-05-17T21:58:04.878Z,21.00
2017-05-17T22:00:34.171Z,21.00
2017-05-17T22:03:03.307Z,21.00
2017-05-17T22:05:32.411Z,21.00
2017-05-17T22:08:01.544Z,20.90
2017-05-17T22:10:30.611Z,20.90
2017-05-17T22:12:59.744Z,20.80
2017-05-17T22:15:28.813Z,20.80
2017-05-17T22:17:57.944Z,20.80
2017-05-17T22:20:27.008Z,20.80
2017-05-17T22:22:56.723Z,20.70
2017-05-17T22:25:25.796Z,20.80
2017-05-17T22:27:54.928Z,20.70
2017-05-17T22:30:23.998Z,20.70
2017-05-17T22:32:53.119Z,20.70
2017-05-17T22:35:22.232Z,20.60
2017-05-17T22:37:52.034Z,20.60
2017-05-17T22:40:21.912Z,20.50
2017-05-17T22:42:51.082Z,20.50
2017-05-17T22:45:20.190Z,20.50
2017-05-17T22:47:49.296Z,20.50
2017-05-17T22:50:18.418Z,20.50
2017-05-17T22:52:47.497Z,20.50
2017-05-17T22:55:16.627Z,20.40
2017-05-17T22:57:46.435Z,20.40
2017-05-17T23:00:15.552Z,20.40
2017-05-17T23:02:45.350Z,20.30
2017-05-17T23:05:14.487Z,20.30
2017-05-17T23:07:43.555Z,20.30
2017-05-17T23:10:12.704Z,20.30
2017-05-17T23:12:41.851Z,20.30
2017-05-17T23:15:11.003Z,20.30
2017-05-17T23:17:40.095Z,20.30
2017-05-17T23:20:09.207Z,20.30
2017-05-17T23:22:39.071Z,20.20
2017-05-17T23:25:08.150Z,20.20
2017-05-17T23:27:37.274Z,20.20
2017-05-17T23:30:06.362Z,20.20
2017-05-17T23:32:35.483Z,20.20
2017-05-17T23:35:04.599Z,20.20
2017-05-17T23:37:34.663Z,20.10
2017-05-17T23:40:03.800Z,20.20
2017-05-17T23:42:33.627Z,20.10
2017-05-17T23:45:02.788Z,20.10
2017-05-17T23:47:31.851Z,20.10
2017-05-17T23:50:01.029Z,20.00
2017-05-17T23:52:30.103Z,19.90
2017-05-17T23:54:59.974Z,19.80
2017-05-17T23:57:29.051Z,19.90
2017-05-17T23:59:58.171Z,19.80
